sensor_id;sensor_type;location;lat;lon;timestamp;P1;durP1;ratioP1;P2;durP2;ratioP2
39788;SDS011;25478;42.626;23.320;2022-10-26T00:00:07;10.50;;;4.88;;
39788;SDS011;25478;42.626;23.320;2022-10-26T00:02:37;9.57;;;4.43;;
39788;SDS011;25478;42.626;23.320;2022-10-26T00:05:02;12.40;;;4.67;;
39788;SDS011;25478;42.626;23.320;2022-10-26T00:07:28;12.60;;;4.93;;
39788;SDS011;25478;42.626;23.320;2022-10-26T00:09:54;12.30;;;4.67;;
39788;SDS011;25478;42.626;23.320;2022-10-26T00:12:19;11.73;;;5.13;;
39788;SDS011;25478;42.626;23.320;2022-10-26T00:14:45;12.20;;;5.07;;
39788;SDS011;25478;42.626;23.320;2022-10-26T00:17:11;12.48;;;4.80;;
39788;SDS011;25478;42.626;23.320;2022-10-26T00:19:36;10.07;;;4.40;;
39788;SDS011;25478;42.626;23.320;2022-10-26T00:22:02;10.93;;;4.80;;
39788;SDS011;25478;42.626;23.320;2022-10-26T00:24:28;12.83;;;5.13;;
39788;SDS011;25478;42.626;23.320;2022-10-26T00:26:53;10.23;;;4.07;;
39788;SDS011;25478;42.626;23.320;2022-10-26T00:29:19;10.77;;;4.10;;
39788;SDS011;25478;42.626;23.320;2022-10-26T00:31:44;14.33;;;4.43;;
39788;SDS011;25478;42.626;23.320;2022-10-26T00:34:10;13.67;;;3.90;;
39788;SDS011;25478;42.626;23.320;2022-10-26T00:36:36;11.03;;;4.10;;
39788;SDS011;25478;42.626;23.320;2022-10-26T00:39:02;8.37;;;4.30;;
39788;SDS011;25478;42.626;23.320;2022-10-26T00:41:29;8.43;;;4.40;;
39788;SDS011;25478;42.626;23.320;2022-10-26T00:43:56;9.60;;;3.53;;
39788;SDS011;25478;42.626;23.320;2022-10-26T00:46:23;14.77;;;5.00;;
39788;SDS011;25478;42.626;23.320;2022-10-26T00:48:53;10.67;;;4.17;;
39788;SDS011;25478;42.626;23.320;2022-10-26T00:51:26;10.23;;;4.73;;
39788;SDS011;25478;42.626;23.320;2022-10-26T00:53:54;6.27;;;3.40;;
39788;SDS011;25478;42.626;23.320;2022-10-26T00:56:20;8.00;;;3.30;;
39788;SDS011;25478;42.626;23.320;2022-10-26T00:58:46;8.40;;;4.27;;
39788;SDS011;25478;42.626;23.320;2022-10-26T01:01:12;9.13;;;3.67;;
39788;SDS011;25478;42.626;23.320;2022-10-26T01:03:38;10.40;;;3.57;;
39788;SDS011;25478;42.626;23.320;2022-10-26T01:06:04;7.37;;;3.60;;
39788;SDS011;25478;42.626;23.320;2022-10-26T01:08:30;7.93;;;3.33;;
39788;SDS011;25478;42.626;23.320;2022-10-26T01:10:56;6.93;;;2.77;;
39788;SDS011;25478;42.626;23.320;2022-10-26T01:13:24;9.17;;;2.87;;
39788;SDS011;25478;42.626;23.320;2022-10-26T01:16:29;6.67;;;2.97;;
39788;SDS011;25478;42.626;23.320;2022-10-26T01:38:50;8.37;;;2.80;;
39788;SDS011;25478;42.626;23.320;2022-10-26T01:43:53;7.20;;;2.87;;
39788;SDS011;25478;42.626;23.320;2022-10-26T01:46:21;8.60;;;3.00;;
39788;SDS011;25478;42.626;23.320;2022-10-26T01:48:50;7.97;;;2.80;;
39788;SDS011;25478;42.626;23.320;2022-10-26T01:51:21;9.13;;;3.27;;
39788;SDS011;25478;42.626;23.320;2022-10-26T01:53:48;11.13;;;3.73;;
39788;SDS011;25478;42.626;23.320;2022-10-26T01:56:24;8.43;;;3.30;;
39788;SDS011;25478;42.626;23.320;2022-10-26T02:12:27;7.37;;;3.13;;
39788;SDS011;25478;42.626;23.320;2022-10-26T02:17:50;7.83;;;2.73;;
39788;SDS011;25478;42.626;23.320;2022-10-26T02:20:30;6.70;;;2.90;;
39788;SDS011;25478;42.626;23.320;2022-10-26T02:23:00;10.60;;;2.77;;
39788;SDS011;25478;42.626;23.320;2022-10-26T02:25:30;5.97;;;2.50;;
39788;SDS011;25478;42.626;23.320;2022-10-26T02:28:00;7.60;;;2.60;;
39788;SDS011;25478;42.626;23.320;2022-10-26T02:30:30;7.13;;;2.70;;
39788;SDS011;25478;42.626;23.320;2022-10-26T02:32:57;8.37;;;3.00;;
39788;SDS011;25478;42.626;23.320;2022-10-26T02:35:24;6.50;;;2.90;;
39788;SDS011;25478;42.626;23.320;2022-10-26T02:37:54;7.83;;;2.90;;
39788;SDS011;25478;42.626;23.320;2022-10-26T02:40:25;9.40;;;2.97;;
39788;SDS011;25478;42.626;23.320;2022-10-26T02:42:53;8.47;;;3.67;;
39788;SDS011;25478;42.626;23.320;2022-10-26T02:45:23;5.80;;;2.73;;
39788;SDS011;25478;42.626;23.320;2022-10-26T02:47:51;9.03;;;3.00;;
39788;SDS011;25478;42.626;23.320;2022-10-26T02:50:19;7.20;;;2.93;;
39788;SDS011;25478;42.626;23.320;2022-10-26T02:55:16;7.73;;;3.80;;
39788;SDS011;25478;42.626;23.320;2022-10-26T02:58:01;7.97;;;3.17;;
39788;SDS011;25478;42.626;23.320;2022-10-26T03:00:30;7.18;;;3.00;;
39788;SDS011;25478;42.626;23.320;2022-10-26T03:02:57;8.80;;;3.23;;
39788;SDS011;25478;42.626;23.320;2022-10-26T03:05:24;6.70;;;3.50;;
39788;SDS011;25478;42.626;23.320;2022-10-26T03:07:51;7.27;;;3.20;;
39788;SDS011;25478;42.626;23.320;2022-10-26T03:10:17;7.37;;;3.17;;
39788;SDS011;25478;42.626;23.320;2022-10-26T03:12:43;6.07;;;3.07;;
39788;SDS011;25478;42.626;23.320;2022-10-26T03:15:09;10.90;;;3.50;;
39788;SDS011;25478;42.626;23.320;2022-10-26T03:17:34;13.67;;;4.60;;
39788;SDS011;25478;42.626;23.320;2022-10-26T03:20:00;12.30;;;5.50;;
39788;SDS011;25478;42.626;23.320;2022-10-26T03:22:25;19.17;;;5.17;;
39788;SDS011;25478;42.626;23.320;2022-10-26T03:24:51;11.73;;;5.23;;
39788;SDS011;25478;42.626;23.320;2022-10-26T03:27:16;15.10;;;5.90;;
39788;SDS011;25478;42.626;23.320;2022-10-26T03:29:42;12.57;;;5.57;;
39788;SDS011;25478;42.626;23.320;2022-10-26T03:32:08;11.07;;;6.23;;
39788;SDS011;25478;42.626;23.320;2022-10-26T03:34:33;13.90;;;6.50;;
39788;SDS011;25478;42.626;23.320;2022-10-26T03:36:59;12.27;;;6.30;;
39788;SDS011;25478;42.626;23.320;2022-10-26T03:39:24;16.80;;;6.80;;
39788;SDS011;25478;42.626;23.320;2022-10-26T03:41:50;13.13;;;6.50;;
39788;SDS011;25478;42.626;23.320;2022-10-26T03:44:15;12.77;;;7.03;;
39788;SDS011;25478;42.626;23.320;2022-10-26T03:46:41;12.70;;;6.40;;
39788;SDS011;25478;42.626;23.320;2022-10-26T03:49:06;13.27;;;6.67;;
39788;SDS011;25478;42.626;23.320;2022-10-26T03:51:32;16.93;;;6.63;;
39788;SDS011;25478;42.626;23.320;2022-10-26T03:53:58;11.93;;;6.80;;
39788;SDS011;25478;42.626;23.320;2022-10-26T03:56:23;14.60;;;6.70;;
39788;SDS011;25478;42.626;23.320;2022-10-26T03:58:48;14.57;;;6.67;;
39788;SDS011;25478;42.626;23.320;2022-10-26T04:01:14;17.87;;;7.40;;
39788;SDS011;25478;42.626;23.320;2022-10-26T04:03:40;16.07;;;7.37;;
39788;SDS011;25478;42.626;23.320;2022-10-26T04:06:05;13.10;;;6.97;;
39788;SDS011;25478;42.626;23.320;2022-10-26T04:08:31;13.07;;;6.87;;
39788;SDS011;25478;42.626;23.320;2022-10-26T04:10:56;11.37;;;6.07;;
39788;SDS011;25478;42.626;23.320;2022-10-26T04:13:22;13.37;;;5.57;;
39788;SDS011;25478;42.626;23.320;2022-10-26T04:15:48;11.87;;;5.27;;
39788;SDS011;25478;42.626;23.320;2022-10-26T04:18:14;9.37;;;5.10;;
39788;SDS011;25478;42.626;23.320;2022-10-26T04:20:40;9.20;;;4.13;;
39788;SDS011;25478;42.626;23.320;2022-10-26T04:23:07;9.37;;;3.87;;
39788;SDS011;25478;42.626;23.320;2022-10-26T04:25:36;9.73;;;3.77;;
39788;SDS011;25478;42.626;23.320;2022-10-26T04:28:02;11.23;;;4.07;;
39788;SDS011;25478;42.626;23.320;2022-10-26T04:30:29;8.40;;;3.77;;
39788;SDS011;25478;42.626;23.320;2022-10-26T04:32:55;7.17;;;3.53;;
39788;SDS011;25478;42.626;23.320;2022-10-26T04:35:21;9.87;;;3.80;;
39788;SDS011;25478;42.626;23.320;2022-10-26T04:37:46;6.83;;;3.83;;
39788;SDS011;25478;42.626;23.320;2022-10-26T04:40:12;8.43;;;3.80;;
39788;SDS011;25478;42.626;23.320;2022-10-26T04:45:06;9.07;;;3.87;;
39788;SDS011;25478;42.626;23.320;2022-10-26T04:47:32;12.53;;;4.30;;
39788;SDS011;25478;42.626;23.320;2022-10-26T04:49:58;9.93;;;4.43;;
39788;SDS011;25478;42.626;23.320;2022-10-26T04:52:23;8.87;;;3.93;;
39788;SDS011;25478;42.626;23.320;2022-10-26T04:54:49;10.87;;;4.50;;
39788;SDS011;25478;42.626;23.320;2022-10-26T04:57:14;9.17;;;4.00;;
39788;SDS011;25478;42.626;23.320;2022-10-26T04:59:39;9.83;;;4.37;;
39788;SDS011;25478;42.626;23.320;2022-10-26T05:02:05;10.23;;;4.50;;
39788;SDS011;25478;42.626;23.320;2022-10-26T05:04:30;10.50;;;4.90;;
39788;SDS011;25478;42.626;23.320;2022-10-26T05:06:56;10.97;;;4.67;;
39788;SDS011;25478;42.626;23.320;2022-10-26T05:09:21;11.53;;;4.43;;
39788;SDS011;25478;42.626;23.320;2022-10-26T05:11:47;11.90;;;4.03;;
39788;SDS011;25478;42.626;23.320;2022-10-26T05:14:12;8.00;;;4.10;;
39788;SDS011;25478;42.626;23.320;2022-10-26T05:16:38;7.83;;;4.20;;
39788;SDS011;25478;42.626;23.320;2022-10-26T05:19:03;9.03;;;4.43;;
39788;SDS011;25478;42.626;23.320;2022-10-26T05:21:29;10.23;;;4.47;;
39788;SDS011;25478;42.626;23.320;2022-10-26T05:23:55;14.27;;;5.33;;
39788;SDS011;25478;42.626;23.320;2022-10-26T05:26:21;12.70;;;4.80;;
39788;SDS011;25478;42.626;23.320;2022-10-26T05:28:47;12.67;;;5.13;;
39788;SDS011;25478;42.626;23.320;2022-10-26T05:31:15;9.97;;;5.17;;
39788;SDS011;25478;42.626;23.320;2022-10-26T05:33:40;11.40;;;5.83;;
39788;SDS011;25478;42.626;23.320;2022-10-26T05:36:06;10.23;;;5.20;;
39788;SDS011;25478;42.626;23.320;2022-10-26T05:38:32;13.73;;;5.40;;
39788;SDS011;25478;42.626;23.320;2022-10-26T05:40:57;12.70;;;5.43;;
39788;SDS011;25478;42.626;23.320;2022-10-26T05:43:23;8.37;;;4.33;;
39788;SDS011;25478;42.626;23.320;2022-10-26T05:45:50;10.67;;;4.97;;
39788;SDS011;25478;42.626;23.320;2022-10-26T05:48:16;10.47;;;4.83;;
39788;SDS011;25478;42.626;23.320;2022-10-26T05:50:41;12.93;;;5.27;;
39788;SDS011;25478;42.626;23.320;2022-10-26T05:53:07;11.10;;;5.23;;
39788;SDS011;25478;42.626;23.320;2022-10-26T05:55:33;13.07;;;5.40;;
39788;SDS011;25478;42.626;23.320;2022-10-26T05:57:59;9.20;;;5.30;;
39788;SDS011;25478;42.626;23.320;2022-10-26T06:00:25;12.93;;;5.80;;
39788;SDS011;25478;42.626;23.320;2022-10-26T06:03:02;12.00;;;5.87;;
39788;SDS011;25478;42.626;23.320;2022-10-26T06:05:33;12.83;;;6.53;;
39788;SDS011;25478;42.626;23.320;2022-10-26T06:08:07;10.85;;;5.97;;
39788;SDS011;25478;42.626;23.320;2022-10-26T06:10:34;14.90;;;5.87;;
39788;SDS011;25478;42.626;23.320;2022-10-26T06:13:00;16.87;;;6.43;;
39788;SDS011;25478;42.626;23.320;2022-10-26T06:15:26;13.03;;;6.30;;
39788;SDS011;25478;42.626;23.320;2022-10-26T06:20:55;12.65;;;6.18;;
39788;SDS011;25478;42.626;23.320;2022-10-26T06:32:18;12.30;;;5.50;;
39788;SDS011;25478;42.626;23.320;2022-10-26T06:34:47;10.57;;;5.40;;
39788;SDS011;25478;42.626;23.320;2022-10-26T06:37:15;14.60;;;5.80;;
39788;SDS011;25478;42.626;23.320;2022-10-26T06:39:43;13.03;;;5.87;;
39788;SDS011;25478;42.626;23.320;2022-10-26T06:42:11;11.73;;;5.17;;
39788;SDS011;25478;42.626;23.320;2022-10-26T06:44:37;12.87;;;5.73;;
39788;SDS011;25478;42.626;23.320;2022-10-26T06:47:09;9.40;;;5.07;;
39788;SDS011;25478;42.626;23.320;2022-10-26T06:52:43;10.67;;;5.83;;
39788;SDS011;25478;42.626;23.320;2022-10-26T06:55:15;13.87;;;5.43;;
39788;SDS011;25478;42.626;23.320;2022-10-26T06:57:42;12.00;;;5.43;;
39788;SDS011;25478;42.626;23.320;2022-10-26T07:02:44;10.10;;;4.57;;
39788;SDS011;25478;42.626;23.320;2022-10-26T07:05:10;13.80;;;5.10;;
39788;SDS011;25478;42.626;23.320;2022-10-26T07:07:40;11.13;;;5.15;;
39788;SDS011;25478;42.626;23.320;2022-10-26T07:10:08;15.27;;;5.70;;
39788;SDS011;25478;42.626;23.320;2022-10-26T07:12:35;9.20;;;4.43;;
39788;SDS011;25478;42.626;23.320;2022-10-26T07:15:00;9.20;;;5.03;;
39788;SDS011;25478;42.626;23.320;2022-10-26T07:17:26;13.02;;;5.10;;
39788;SDS011;25478;42.626;23.320;2022-10-26T07:19:53;12.75;;;5.50;;
39788;SDS011;25478;42.626;23.320;2022-10-26T07:22:19;11.50;;;5.57;;
39788;SDS011;25478;42.626;23.320;2022-10-26T07:24:44;12.00;;;5.40;;
39788;SDS011;25478;42.626;23.320;2022-10-26T07:27:14;10.30;;;5.18;;
39788;SDS011;25478;42.626;23.320;2022-10-26T07:29:39;11.15;;;5.32;;
39788;SDS011;25478;42.626;23.320;2022-10-26T07:32:05;13.13;;;5.93;;
39788;SDS011;25478;42.626;23.320;2022-10-26T07:34:30;12.52;;;5.85;;
39788;SDS011;25478;42.626;23.320;2022-10-26T07:36:57;11.63;;;6.05;;
39788;SDS011;25478;42.626;23.320;2022-10-26T07:39:24;12.73;;;6.00;;
39788;SDS011;25478;42.626;23.320;2022-10-26T07:41:49;15.82;;;5.95;;
39788;SDS011;25478;42.626;23.320;2022-10-26T07:44:15;16.08;;;6.18;;
39788;SDS011;25478;42.626;23.320;2022-10-26T07:46:40;9.98;;;5.40;;
39788;SDS011;25478;42.626;23.320;2022-10-26T07:49:06;13.88;;;5.32;;
39788;SDS011;25478;42.626;23.320;2022-10-26T07:51:31;13.23;;;5.55;;
39788;SDS011;25478;42.626;23.320;2022-10-26T07:53:57;12.00;;;5.68;;
39788;SDS011;25478;42.626;23.320;2022-10-26T07:56:22;11.93;;;6.03;;
39788;SDS011;25478;42.626;23.320;2022-10-26T07:58:50;11.32;;;5.60;;
39788;SDS011;25478;42.626;23.320;2022-10-26T08:01:16;14.07;;;6.28;;
39788;SDS011;25478;42.626;23.320;2022-10-26T08:03:42;15.73;;;6.25;;
39788;SDS011;25478;42.626;23.320;2022-10-26T08:06:07;14.27;;;6.07;;
39788;SDS011;25478;42.626;23.320;2022-10-26T08:08:34;10.70;;;5.85;;
39788;SDS011;25478;42.626;23.320;2022-10-26T08:11:00;15.48;;;5.88;;
39788;SDS011;25478;42.626;23.320;2022-10-26T08:13:26;12.30;;;6.25;;
39788;SDS011;25478;42.626;23.320;2022-10-26T08:15:55;13.75;;;5.57;;
39788;SDS011;25478;42.626;23.320;2022-10-26T08:18:24;12.17;;;5.47;;
39788;SDS011;25478;42.626;23.320;2022-10-26T08:20:50;12.35;;;5.22;;
39788;SDS011;25478;42.626;23.320;2022-10-26T08:23:16;10.15;;;5.30;;
39788;SDS011;25478;42.626;23.320;2022-10-26T08:25:42;9.45;;;5.03;;
39788;SDS011;25478;42.626;23.320;2022-10-26T08:28:07;11.13;;;5.40;;
39788;SDS011;25478;42.626;23.320;2022-10-26T08:30:33;9.95;;;5.30;;
39788;SDS011;25478;42.626;23.320;2022-10-26T08:32:59;10.68;;;5.35;;
39788;SDS011;25478;42.626;23.320;2022-10-26T08:35:26;10.90;;;6.53;;
39788;SDS011;25478;42.626;23.320;2022-10-26T08:37:53;10.27;;;5.47;;
39788;SDS011;25478;42.626;23.320;2022-10-26T08:40:20;11.10;;;5.75;;
39788;SDS011;25478;42.626;23.320;2022-10-26T08:42:50;17.55;;;5.45;;
39788;SDS011;25478;42.626;23.320;2022-10-26T08:45:34;17.75;;;6.07;;
39788;SDS011;25478;42.626;23.320;2022-10-26T08:48:11;9.40;;;5.10;;
39788;SDS011;25478;42.626;23.320;2022-10-26T08:50:40;11.02;;;5.07;;
39788;SDS011;25478;42.626;23.320;2022-10-26T08:56:17;12.10;;;4.88;;
39788;SDS011;25478;42.626;23.320;2022-10-26T08:58:46;13.45;;;5.80;;
39788;SDS011;25478;42.626;23.320;2022-10-26T09:01:16;9.77;;;5.30;;
39788;SDS011;25478;42.626;23.320;2022-10-26T09:03:42;11.23;;;5.13;;
39788;SDS011;25478;42.626;23.320;2022-10-26T09:25:21;4.93;;;2.70;;
39788;SDS011;25478;42.626;23.320;2022-10-26T09:27:50;9.45;;;3.83;;
39788;SDS011;25478;42.626;23.320;2022-10-26T09:30:22;6.40;;;3.75;;
39788;SDS011;25478;42.626;23.320;2022-10-26T09:32:55;12.57;;;4.32;;
39788;SDS011;25478;42.626;23.320;2022-10-26T09:35:24;8.27;;;3.10;;
39788;SDS011;25478;42.626;23.320;2022-10-26T09:37:53;6.20;;;2.67;;
39788;SDS011;25478;42.626;23.320;2022-10-26T09:43:01;6.82;;;3.25;;
39788;SDS011;25478;42.626;23.320;2022-10-26T09:45:35;7.95;;;3.05;;
39788;SDS011;25478;42.626;23.320;2022-10-26T09:48:12;7.90;;;3.17;;
39788;SDS011;25478;42.626;23.320;2022-10-26T09:50:43;11.05;;;2.55;;
39788;SDS011;25478;42.626;23.320;2022-10-26T09:53:12;5.95;;;2.70;;
39788;SDS011;25478;42.626;23.320;2022-10-26T09:55:39;6.03;;;3.00;;
39788;SDS011;25478;42.626;23.320;2022-10-26T09:58:22;11.98;;;3.35;;
39788;SDS011;25478;42.626;23.320;2022-10-26T10:00:52;8.30;;;2.83;;
39788;SDS011;25478;42.626;23.320;2022-10-26T10:03:19;9.18;;;3.33;;
39788;SDS011;25478;42.626;23.320;2022-10-26T10:05:48;7.20;;;3.22;;
39788;SDS011;25478;42.626;23.320;2022-10-26T10:13:18;6.47;;;3.20;;
39788;SDS011;25478;42.626;23.320;2022-10-26T10:18:54;8.02;;;3.22;;
39788;SDS011;25478;42.626;23.320;2022-10-26T10:21:37;7.50;;;3.20;;
39788;SDS011;25478;42.626;23.320;2022-10-26T10:26:55;13.68;;;3.42;;
39788;SDS011;25478;42.626;23.320;2022-10-26T10:29:26;6.97;;;3.10;;
39788;SDS011;25478;42.626;23.320;2022-10-26T10:32:00;5.90;;;3.15;;
39788;SDS011;25478;42.626;23.320;2022-10-26T10:34:31;18.40;;;4.43;;
39788;SDS011;25478;42.626;23.320;2022-10-26T10:36:58;10.18;;;4.07;;
39788;SDS011;25478;42.626;23.320;2022-10-26T10:39:35;8.85;;;3.17;;
39788;SDS011;25478;42.626;23.320;2022-10-26T10:42:04;8.15;;;3.00;;
39788;SDS011;25478;42.626;23.320;2022-10-26T10:44:38;7.07;;;3.10;;
39788;SDS011;25478;42.626;23.320;2022-10-26T10:47:13;6.82;;;2.75;;
39788;SDS011;25478;42.626;23.320;2022-10-26T10:49:52;10.13;;;2.78;;
39788;SDS011;25478;42.626;23.320;2022-10-26T10:52:21;6.18;;;2.60;;
39788;SDS011;25478;42.626;23.320;2022-10-26T10:54:59;7.35;;;2.58;;
39788;SDS011;25478;42.626;23.320;2022-10-26T11:00:24;8.60;;;2.92;;
39788;SDS011;25478;42.626;23.320;2022-10-26T11:08:07;7.65;;;3.10;;
39788;SDS011;25478;42.626;23.320;2022-10-26T11:10:38;9.52;;;3.53;;
39788;SDS011;25478;42.626;23.320;2022-10-26T11:13:18;7.45;;;2.95;;
39788;SDS011;25478;42.626;23.320;2022-10-26T11:15:48;9.38;;;3.20;;
39788;SDS011;25478;42.626;23.320;2022-10-26T11:18:24;7.82;;;3.20;;
39788;SDS011;25478;42.626;23.320;2022-10-26T11:20:54;11.50;;;3.50;;
39788;SDS011;25478;42.626;23.320;2022-10-26T11:23:46;11.48;;;3.58;;
39788;SDS011;25478;42.626;23.320;2022-10-26T11:29:04;8.07;;;3.33;;
39788;SDS011;25478;42.626;23.320;2022-10-26T11:31:45;8.40;;;3.65;;
39788;SDS011;25478;42.626;23.320;2022-10-26T11:37:08;6.43;;;2.85;;
39788;SDS011;25478;42.626;23.320;2022-10-26T11:42:12;4.63;;;2.72;;
39788;SDS011;25478;42.626;23.320;2022-10-26T11:45:01;5.70;;;2.60;;
39788;SDS011;25478;42.626;23.320;2022-10-26T11:47:41;6.55;;;2.45;;
39788;SDS011;25478;42.626;23.320;2022-10-26T11:50:17;6.20;;;1.92;;
39788;SDS011;25478;42.626;23.320;2022-10-26T11:52:47;8.10;;;2.58;;
39788;SDS011;25478;42.626;23.320;2022-10-26T11:55:19;7.70;;;2.38;;
39788;SDS011;25478;42.626;23.320;2022-10-26T11:57:46;3.50;;;1.63;;
39788;SDS011;25478;42.626;23.320;2022-10-26T12:00:17;14.85;;;2.50;;
39788;SDS011;25478;42.626;23.320;2022-10-26T12:03:03;2.88;;;1.45;;
39788;SDS011;25478;42.626;23.320;2022-10-26T12:05:35;2.90;;;1.40;;
39788;SDS011;25478;42.626;23.320;2022-10-26T12:08:08;3.03;;;1.30;;
39788;SDS011;25478;42.626;23.320;2022-10-26T12:10:40;4.45;;;1.70;;
39788;SDS011;25478;42.626;23.320;2022-10-26T12:15:59;3.85;;;1.38;;
39788;SDS011;25478;42.626;23.320;2022-10-26T12:18:51;3.55;;;1.30;;
39788;SDS011;25478;42.626;23.320;2022-10-26T12:21:27;4.82;;;1.50;;
39788;SDS011;25478;42.626;23.320;2022-10-26T12:28:48;5.50;;;1.45;;
39788;SDS011;25478;42.626;23.320;2022-10-26T12:34:00;4.45;;;1.52;;
39788;SDS011;25478;42.626;23.320;2022-10-26T12:39:28;3.85;;;1.20;;
39788;SDS011;25478;42.626;23.320;2022-10-26T12:41:57;3.28;;;1.40;;
39788;SDS011;25478;42.626;23.320;2022-10-26T12:58:53;3.95;;;1.15;;
39788;SDS011;25478;42.626;23.320;2022-10-26T13:01:34;5.85;;;1.33;;
39788;SDS011;25478;42.626;23.320;2022-10-26T13:05:23;6.15;;;1.42;;
39788;SDS011;25478;42.626;23.320;2022-10-26T13:07:38;3.50;;;1.23;;
39788;SDS011;25478;42.626;23.320;2022-10-26T13:12:38;4.18;;;1.33;;
39788;SDS011;25478;42.626;23.320;2022-10-26T13:15:20;26.65;;;2.45;;
39788;SDS011;25478;42.626;23.320;2022-10-26T13:23:31;17.02;;;10.20;;
39788;SDS011;25478;42.626;23.320;2022-10-26T13:26:03;13.27;;;6.00;;
39788;SDS011;25478;42.626;23.320;2022-10-26T13:31:02;2.60;;;1.10;;
39788;SDS011;25478;42.626;23.320;2022-10-26T13:33:30;2.50;;;0.90;;
39788;SDS011;25478;42.626;23.320;2022-10-26T13:36:05;2.15;;;1.00;;
39788;SDS011;25478;42.626;23.320;2022-10-26T13:38:39;4.70;;;1.20;;
39788;SDS011;25478;42.626;23.320;2022-10-26T13:41:06;7.97;;;1.58;;
39788;SDS011;25478;42.626;23.320;2022-10-26T13:43:49;3.92;;;1.58;;
39788;SDS011;25478;42.626;23.320;2022-10-26T13:46:21;3.00;;;1.00;;
39788;SDS011;25478;42.626;23.320;2022-10-26T13:48:50;2.65;;;1.10;;
39788;SDS011;25478;42.626;23.320;2022-10-26T13:51:23;3.63;;;1.30;;
39788;SDS011;25478;42.626;23.320;2022-10-26T13:54:06;4.13;;;2.15;;
39788;SDS011;25478;42.626;23.320;2022-10-26T13:56:44;5.82;;;2.60;;
39788;SDS011;25478;42.626;23.320;2022-10-26T13:59:21;5.78;;;2.20;;
39788;SDS011;25478;42.626;23.320;2022-10-26T14:02:03;9.63;;;2.20;;
39788;SDS011;25478;42.626;23.320;2022-10-26T14:04:40;6.88;;;1.88;;
39788;SDS011;25478;42.626;23.320;2022-10-26T14:07:10;4.47;;;1.98;;
39788;SDS011;25478;42.626;23.320;2022-10-26T14:09:41;5.68;;;1.90;;
39788;SDS011;25478;42.626;23.320;2022-10-26T14:12:08;9.52;;;2.10;;
39788;SDS011;25478;42.626;23.320;2022-10-26T14:14:36;9.63;;;2.22;;
39788;SDS011;25478;42.626;23.320;2022-10-26T14:17:02;13.68;;;2.05;;
39788;SDS011;25478;42.626;23.320;2022-10-26T14:19:30;8.95;;;1.83;;
39788;SDS011;25478;42.626;23.320;2022-10-26T14:21:59;7.10;;;1.77;;
39788;SDS011;25478;42.626;23.320;2022-10-26T14:24:26;3.25;;;1.50;;
39788;SDS011;25478;42.626;23.320;2022-10-26T14:26:57;5.78;;;1.83;;
39788;SDS011;25478;42.626;23.320;2022-10-26T14:29:23;5.97;;;2.03;;
39788;SDS011;25478;42.626;23.320;2022-10-26T14:31:51;4.38;;;1.95;;
39788;SDS011;25478;42.626;23.320;2022-10-26T14:34:18;6.18;;;1.85;;
39788;SDS011;25478;42.626;23.320;2022-10-26T14:41:50;4.82;;;1.48;;
39788;SDS011;25478;42.626;23.320;2022-10-26T14:44:19;7.20;;;2.22;;
39788;SDS011;25478;42.626;23.320;2022-10-26T14:46:47;7.25;;;2.15;;
39788;SDS011;25478;42.626;23.320;2022-10-26T14:49:22;7.88;;;2.10;;
39788;SDS011;25478;42.626;23.320;2022-10-26T14:51:58;10.05;;;2.33;;
39788;SDS011;25478;42.626;23.320;2022-10-26T14:54:29;10.20;;;3.00;;
39788;SDS011;25478;42.626;23.320;2022-10-26T14:56:56;7.47;;;2.67;;
39788;SDS011;25478;42.626;23.320;2022-10-26T14:59:26;13.32;;;4.50;;
39788;SDS011;25478;42.626;23.320;2022-10-26T15:04:38;6.43;;;2.65;;
39788;SDS011;25478;42.626;23.320;2022-10-26T15:09:43;5.13;;;1.88;;
39788;SDS011;25478;42.626;23.320;2022-10-26T15:14:44;8.82;;;2.13;;
39788;SDS011;25478;42.626;23.320;2022-10-26T15:17:19;3.67;;;1.65;;
39788;SDS011;25478;42.626;23.320;2022-10-26T15:19:48;6.23;;;1.90;;
39788;SDS011;25478;42.626;23.320;2022-10-26T15:22:22;6.57;;;1.97;;
39788;SDS011;25478;42.626;23.320;2022-10-26T15:24:51;5.67;;;2.20;;
39788;SDS011;25478;42.626;23.320;2022-10-26T15:27:18;4.80;;;2.13;;
39788;SDS011;25478;42.626;23.320;2022-10-26T15:29:48;5.73;;;2.27;;
39788;SDS011;25478;42.626;23.320;2022-10-26T15:35:04;4.87;;;2.50;;
39788;SDS011;25478;42.626;23.320;2022-10-26T15:37:38;7.33;;;3.50;;
39788;SDS011;25478;42.626;23.320;2022-10-26T15:40:04;11.10;;;4.30;;
39788;SDS011;25478;42.626;23.320;2022-10-26T15:42:30;9.43;;;4.20;;
39788;SDS011;25478;42.626;23.320;2022-10-26T15:44:56;9.07;;;3.63;;
39788;SDS011;25478;42.626;23.320;2022-10-26T15:47:32;6.57;;;3.83;;
39788;SDS011;25478;42.626;23.320;2022-10-26T15:49:58;12.70;;;6.33;;
39788;SDS011;25478;42.626;23.320;2022-10-26T15:52:24;8.73;;;5.10;;
39788;SDS011;25478;42.626;23.320;2022-10-26T15:54:49;8.30;;;4.40;;
39788;SDS011;25478;42.626;23.320;2022-10-26T15:57:15;7.20;;;3.97;;
39788;SDS011;25478;42.626;23.320;2022-10-26T15:59:41;5.87;;;3.03;;
39788;SDS011;25478;42.626;23.320;2022-10-26T16:02:13;8.33;;;4.10;;
39788;SDS011;25478;42.626;23.320;2022-10-26T16:04:39;6.63;;;4.40;;
39788;SDS011;25478;42.626;23.320;2022-10-26T16:07:06;5.80;;;4.10;;
39788;SDS011;25478;42.626;23.320;2022-10-26T16:09:36;7.77;;;4.40;;
39788;SDS011;25478;42.626;23.320;2022-10-26T16:12:01;8.43;;;4.67;;
39788;SDS011;25478;42.626;23.320;2022-10-26T16:14:27;14.03;;;7.90;;
39788;SDS011;25478;42.626;23.320;2022-10-26T16:16:52;26.70;;;13.07;;
39788;SDS011;25478;42.626;23.320;2022-10-26T16:19:18;59.83;;;28.17;;
39788;SDS011;25478;42.626;23.320;2022-10-26T16:21:43;51.90;;;24.17;;
39788;SDS011;25478;42.626;23.320;2022-10-26T16:24:09;32.93;;;16.90;;
39788;SDS011;25478;42.626;23.320;2022-10-26T16:26:34;20.67;;;10.00;;
39788;SDS011;25478;42.626;23.320;2022-10-26T16:29:00;10.93;;;5.70;;
39788;SDS011;25478;42.626;23.320;2022-10-26T16:31:25;10.23;;;3.90;;
39788;SDS011;25478;42.626;23.320;2022-10-26T16:33:51;7.77;;;4.07;;
39788;SDS011;25478;42.626;23.320;2022-10-26T16:36:16;18.27;;;5.70;;
39788;SDS011;25478;42.626;23.320;2022-10-26T16:38:42;15.77;;;6.77;;
39788;SDS011;25478;42.626;23.320;2022-10-26T16:41:11;14.90;;;8.73;;
39788;SDS011;25478;42.626;23.320;2022-10-26T16:43:42;24.23;;;13.87;;
39788;SDS011;25478;42.626;23.320;2022-10-26T16:48:37;41.23;;;24.10;;
39788;SDS011;25478;42.626;23.320;2022-10-26T16:51:04;20.37;;;12.37;;
39788;SDS011;25478;42.626;23.320;2022-10-26T16:53:40;14.47;;;8.80;;
39788;SDS011;25478;42.626;23.320;2022-10-26T16:56:10;6.83;;;4.70;;
39788;SDS011;25478;42.626;23.320;2022-10-26T16:58:38;10.40;;;6.90;;
39788;SDS011;25478;42.626;23.320;2022-10-26T17:01:05;15.47;;;10.93;;
39788;SDS011;25478;42.626;23.320;2022-10-26T17:03:32;18.67;;;12.90;;
39788;SDS011;25478;42.626;23.320;2022-10-26T17:05:58;14.83;;;10.87;;
39788;SDS011;25478;42.626;23.320;2022-10-26T17:08:25;10.37;;;8.17;;
39788;SDS011;25478;42.626;23.320;2022-10-26T17:10:52;8.30;;;5.93;;
39788;SDS011;25478;42.626;23.320;2022-10-26T17:13:18;9.37;;;6.07;;
39788;SDS011;25478;42.626;23.320;2022-10-26T17:15:44;9.33;;;6.07;;
39788;SDS011;25478;42.626;23.320;2022-10-26T17:18:09;7.43;;;4.93;;
39788;SDS011;25478;42.626;23.320;2022-10-26T17:20:38;6.63;;;4.07;;
39788;SDS011;25478;42.626;23.320;2022-10-26T17:23:04;10.17;;;4.50;;
39788;SDS011;25478;42.626;23.320;2022-10-26T17:25:34;6.13;;;4.30;;
39788;SDS011;25478;42.626;23.320;2022-10-26T17:28:00;8.17;;;4.60;;